createdAt,value
2023-02-19T00:00:02.040Z,8.26
2023-02-19T00:01:01.496Z,8.24
2023-02-19T00:02:01.984Z,8.26
2023-02-19T00:03:01.479Z,8.28
2023-02-19T00:04:01.951Z,8.31
2023-02-19T00:05:01.488Z,8.34
2023-02-19T00:06:03.557Z,8.34
2023-02-19T00:07:03.093Z,8.33
2023-02-19T00:08:01.885Z,8.33
2023-02-19T00:09:01.334Z,8.33
2023-02-19T00:10:01.812Z,8.32
2023-02-19T00:11:02.280Z,8.31
2023-02-19T00:12:03.477Z,8.3
2023-02-19T00:13:02.271Z,8.31
2023-02-19T00:14:03.416Z,8.32
2023-02-19T00:15:03.869Z,8.3
2023-02-19T00:16:01.729Z,8.28
2023-02-19T00:17:03.865Z,8.26
2023-02-19T00:18:01.631Z,8.26
2023-02-19T00:19:02.133Z,8.24
2023-02-19T00:20:03.336Z,8.24
2023-02-19T00:21:03.801Z,8.26
2023-02-19T00:22:01.562Z,8.28
2023-02-19T00:23:02.023Z,8.29
2023-02-19T00:24:01.570Z,8.3
2023-02-19T00:25:02.032Z,8.3
2023-02-19T00:26:17.162Z,8.31
2023-02-19T00:27:01.964Z,8.32
2023-02-19T00:28:01.408Z,8.32
2023-02-19T00:29:01.898Z,8.33
2023-02-19T00:30:01.437Z,8.35
2023-02-19T00:31:03.647Z,8.36
2023-02-19T00:32:03.031Z,8.36
2023-02-19T00:33:01.825Z,8.37
2023-02-19T00:34:02.282Z,8.35
2023-02-19T00:35:03.498Z,8.35
2023-02-19T00:36:02.271Z,8.35
2023-02-19T00:37:01.801Z,8.34
2023-02-19T00:38:03.908Z,8.33
2023-02-19T00:39:01.729Z,8.32
2023-02-19T00:40:02.194Z,8.32
2023-02-19T00:41:01.641Z,8.3
2023-02-19T00:42:03.778Z,8.29
2023-02-19T00:43:03.378Z,8.27
2023-02-19T00:44:03.794Z,8.24
2023-02-19T00:45:03.250Z,8.22
2023-02-19T00:46:02.081Z,8.2
2023-02-19T00:47:03.231Z,8.17
2023-02-19T00:48:02.037Z,8.13
2023-02-19T00:49:01.508Z,8.08
2023-02-19T00:50:01.982Z,8.03
2023-02-19T00:51:01.476Z,7.99
2023-02-19T00:52:01.960Z,7.96
2023-02-19T00:53:03.071Z,7.93
2023-02-19T00:54:01.900Z,7.91
2023-02-19T00:55:01.391Z,7.88
2023-02-19T00:56:03.575Z,7.86
2023-02-19T00:57:01.323Z,7.84
2023-02-19T00:58:01.794Z,7.82
2023-02-19T00:59:03.975Z,7.81
2023-02-19T01:00:01.791Z,7.79
2023-02-19T01:01:02.293Z,7.78
2023-02-19T01:02:01.719Z,7.77
2023-02-19T01:03:02.184Z,7.75
2023-02-19T01:04:01.629Z,7.74
2023-02-19T01:05:02.195Z,7.73
2023-02-19T01:06:01.629Z,7.72
2023-02-19T01:07:02.102Z,7.71
2023-02-19T01:08:01.565Z,7.71
2023-02-19T01:09:02.028Z,7.71
2023-02-19T01:10:01.566Z,7.7
2023-02-19T01:11:02.035Z,7.69
2023-02-19T01:12:01.469Z,7.68
2023-02-19T01:13:01.956Z,7.67
2023-02-19T01:14:03.061Z,7.65
2023-02-19T01:15:01.877Z,7.65
2023-02-19T01:16:01.454Z,7.65
2023-02-19T01:17:01.871Z,7.65
2023-02-19T01:18:01.304Z,7.67
2023-02-19T01:19:01.792Z,7.67
2023-02-19T01:20:01.342Z,7.68
2023-02-19T01:21:01.811Z,7.68
2023-02-19T01:22:02.267Z,7.7
2023-02-19T01:23:03.387Z,7.73
2023-02-19T01:24:02.284Z,7.75
2023-02-19T01:25:01.713Z,7.75
2023-02-19T01:26:02.214Z,7.74
2023-02-19T01:27:01.716Z,7.76
2023-02-19T01:28:03.864Z,7.77
2023-02-19T01:29:01.628Z,7.78
2023-02-19T01:30:03.865Z,7.79
2023-02-19T01:31:01.682Z,7.81
2023-02-19T01:32:02.318Z,7.81
2023-02-19T01:33:01.556Z,7.81
2023-02-19T01:34:02.047Z,7.83
2023-02-19T01:35:01.474Z,7.84
2023-02-19T01:36:02.042Z,7.85
2023-02-19T01:37:01.479Z,7.85
2023-02-19T01:38:01.979Z,7.86
2023-02-19T01:39:03.137Z,7.88
2023-02-19T01:40:01.952Z,7.88
2023-02-19T01:41:01.384Z,7.89
2023-02-19T01:42:01.871Z,7.89
2023-02-19T01:43:03.029Z,7.89
2023-02-19T01:44:01.789Z,7.88
2023-02-19T01:45:02.290Z,7.9
2023-02-19T01:46:01.801Z,7.92
2023-02-19T01:47:02.282Z,7.92
2023-02-19T01:48:01.717Z,7.92
2023-02-19T01:49:02.228Z,7.92
2023-02-19T01:50:01.714Z,7.92
2023-02-19T01:51:02.206Z,7.93
2023-02-19T01:52:01.714Z,7.93
2023-02-19T01:53:02.232Z,7.93
2023-02-19T01:54:01.639Z,7.94
2023-02-19T01:55:03.795Z,7.96
2023-02-19T01:56:01.563Z,7.96
2023-02-19T01:57:02.065Z,7.98
2023-02-19T01:58:03.246Z,7.98
2023-02-19T01:59:02.075Z,7.97
2023-02-19T02:00:03.241Z,7.97
2023-02-19T02:01:02.109Z,7.97
2023-02-19T02:02:03.168Z,7.97
2023-02-19T02:03:03.707Z,7.98
2023-02-19T02:04:01.423Z,7.97
2023-02-19T02:05:01.889Z,7.98
2023-02-19T02:06:01.406Z,7.97
2023-02-19T02:07:03.553Z,7.97
2023-02-19T02:08:01.336Z,7.96
2023-02-19T02:09:01.800Z,7.94
2023-02-19T02:10:02.282Z,7.93
2023-02-19T02:11:01.821Z,7.94
2023-02-19T02:12:02.278Z,7.96
2023-02-19T02:13:01.757Z,7.96
2023-02-19T02:14:02.288Z,7.98
2023-02-19T02:15:01.733Z,7.98
2023-02-19T02:16:02.220Z,7.98
2023-02-19T02:17:03.392Z,7.99
2023-02-19T02:18:03.044Z,8
2023-02-19T02:19:01.808Z,7.99
2023-02-19T02:20:02.303Z,7.98
2023-02-19T02:21:01.766Z,7.98
2023-02-19T02:22:02.200Z,7.98
2023-02-19T02:23:01.726Z,8
2023-02-19T02:24:02.208Z,8.02
2023-02-19T02:25:01.661Z,8.03
2023-02-19T02:26:02.140Z,8.03
2023-02-19T02:27:01.663Z,8.05
2023-02-19T02:28:02.120Z,8.09
2023-02-19T02:29:01.567Z,8.12
2023-02-19T02:30:02.097Z,8.13
2023-02-19T02:31:03.184Z,8.12
2023-02-19T02:32:02.110Z,8.12
2023-02-19T02:33:01.476Z,8.12
2023-02-19T02:34:01.961Z,8.14
2023-02-19T02:35:01.406Z,8.15
2023-02-19T02:36:01.890Z,8.15
2023-02-19T02:37:01.406Z,8.17
2023-02-19T02:38:03.557Z,8.19
2023-02-19T02:40:01.844Z,8.16
2023-02-19T02:41:02.295Z,8.16
2023-02-19T02:42:03.476Z,8.16
2023-02-19T02:43:03.962Z,8.16
2023-02-19T02:44:01.720Z,8.15
2023-02-19T02:45:02.219Z,8.18
2023-02-19T02:46:01.721Z,8.18
2023-02-19T02:47:02.209Z,8.18
2023-02-19T02:48:01.666Z,8.2
2023-02-19T02:49:02.118Z,8.22
2023-02-19T02:50:03.248Z,8.23
2023-02-19T02:51:02.042Z,8.22
2023-02-19T02:52:01.561Z,8.23
2023-02-19T02:53:02.080Z,8.24
2023-02-19T02:54:01.578Z,8.23
2023-02-19T02:55:02.778Z,8.23
2023-02-19T02:56:03.169Z,8.22
2023-02-19T02:57:01.978Z,8.21
2023-02-19T02:58:03.088Z,8.22
2023-02-19T02:59:01.981Z,8.21
2023-02-19T03:00:01.397Z,8.23
2023-02-19T03:01:03.611Z,8.24
2023-02-19T03:02:01.395Z,8.23
2023-02-19T03:03:01.789Z,8.26
2023-02-19T03:04:02.276Z,8.27
2023-02-19T03:05:03.505Z,8.28
2023-02-19T03:06:02.271Z,8.29
2023-02-19T03:07:01.710Z,8.3
2023-02-19T03:08:02.200Z,8.31
2023-02-19T03:09:01.720Z,8.31
2023-02-19T03:10:03.903Z,8.3
2023-02-19T03:11:01.672Z,8.31
2023-02-19T03:12:03.786Z,8.32
2023-02-19T03:13:01.555Z,8.35
2023-02-19T03:14:02.043Z,8.35
2023-02-19T03:15:01.559Z,8.35
2023-02-19T03:16:02.074Z,8.36
2023-02-19T03:17:02.443Z,8.36
2023-02-19T03:18:02.040Z,8.39
2023-02-19T03:19:01.481Z,8.41
2023-02-19T03:20:01.967Z,8.39
2023-02-19T03:21:01.413Z,8.35
2023-02-19T03:22:01.966Z,8.34
2023-02-19T03:23:01.393Z,8.34
2023-02-19T03:24:01.871Z,8.37
2023-02-19T03:25:01.389Z,8.39
2023-02-19T03:26:01.891Z,8.41
2023-02-19T03:28:01.800Z,8.41
2023-02-19T03:29:02.271Z,8.42
2023-02-19T03:30:01.840Z,8.41
2023-02-19T03:31:03.959Z,8.37
2023-02-19T03:32:03.504Z,8.41
2023-02-19T03:33:02.205Z,8.43
2023-02-19T03:34:01.636Z,8.44
2023-02-19T03:35:03.808Z,8.45
2023-02-19T03:36:01.564Z,8.45
2023-02-19T03:37:02.043Z,8.46
2023-02-19T03:38:03.234Z,8.47
2023-02-19T03:39:03.728Z,8.49
2023-02-19T03:40:01.500Z,8.52
2023-02-19T03:41:01.985Z,8.56
2023-02-19T03:42:01.485Z,8.57
2023-02-19T03:43:01.961Z,8.59
2023-02-19T03:44:01.402Z,8.57
2023-02-19T03:45:01.953Z,8.57
2023-02-19T03:46:01.534Z,8.59
2023-02-19T03:47:01.904Z,8.6
2023-02-19T03:48:01.332Z,8.59
2023-02-19T03:49:01.820Z,8.58
2023-02-19T03:50:02.306Z,8.56
2023-02-19T03:51:01.730Z,8.55
2023-02-19T03:52:02.303Z,8.56
2023-02-19T03:53:01.728Z,8.56
2023-02-19T03:54:02.203Z,8.56
2023-02-19T03:55:01.717Z,8.56
2023-02-19T03:56:02.201Z,8.6
2023-02-19T03:57:01.681Z,8.6
2023-02-19T03:58:02.159Z,8.62
2023-02-19T03:59:01.658Z,8.61
2023-02-19T04:00:02.120Z,8.61
2023-02-19T04:01:01.556Z,8.61
2023-02-19T04:02:02.127Z,8.6
2023-02-19T04:03:03.278Z,8.61
2023-02-19T04:04:02.043Z,8.62
2023-02-19T04:05:01.525Z,8.64
2023-02-19T04:06:03.711Z,8.63
2023-02-19T04:07:01.481Z,8.62
2023-02-19T04:08:03.686Z,8.63
2023-02-19T04:09:01.406Z,8.66
2023-02-19T04:10:01.878Z,8.66
2023-02-19T04:11:03.001Z,8.65
2023-02-19T04:12:01.798Z,8.65
2023-02-19T04:13:02.285Z,8.67
2023-02-19T04:14:03.503Z,8.68
2023-02-19T04:15:02.274Z,8.71
2023-02-19T04:16:02.651Z,8.72
2023-02-19T04:17:02.272Z,8.73
2023-02-19T04:18:01.753Z,8.72
2023-02-19T04:19:02.206Z,8.73
2023-02-19T04:20:01.723Z,8.73
2023-02-19T04:21:02.208Z,8.73
2023-02-19T04:22:01.655Z,8.73
2023-02-19T04:23:02.139Z,8.75
2023-02-19T04:24:01.640Z,8.76
2023-02-19T04:25:02.128Z,8.76
2023-02-19T04:26:03.248Z,8.78
2023-02-19T04:27:02.053Z,8.8
2023-02-19T04:28:01.498Z,8.79
2023-02-19T04:29:01.980Z,8.79
2023-02-19T04:30:01.587Z,8.78
2023-02-19T04:31:03.726Z,8.77
2023-02-19T04:32:01.557Z,8.77
2023-02-19T04:33:03.561Z,8.77
2023-02-19T04:34:01.428Z,8.76
2023-02-19T04:35:01.870Z,8.74
2023-02-19T04:36:01.406Z,8.73
2023-02-19T04:37:01.877Z,8.7
2023-02-19T04:39:01.812Z,8.64
2023-02-19T04:40:02.265Z,8.61
2023-02-19T04:41:01.796Z,8.62
2023-02-19T04:42:02.283Z,8.62
2023-02-19T04:43:01.709Z,8.6
2023-02-19T04:44:02.213Z,8.6
2023-02-19T04:45:03.307Z,8.61
2023-02-19T04:46:02.149Z,8.62
2023-02-19T04:47:03.309Z,8.61
2023-02-19T04:48:02.102Z,8.64
2023-02-19T04:49:03.258Z,8.66
2023-02-19T04:50:02.035Z,8.66
2023-02-19T04:51:01.557Z,8.71
2023-02-19T04:52:02.035Z,8.75
2023-02-19T04:53:03.228Z,8.76
2023-02-19T04:54:01.956Z,8.79
2023-02-19T04:55:01.503Z,8.81
2023-02-19T04:56:01.960Z,8.8
2023-02-19T04:57:01.417Z,8.81
2023-02-19T04:58:01.874Z,8.8
2023-02-19T04:59:01.395Z,8.8
2023-02-19T05:00:01.887Z,8.82
2023-02-19T05:01:01.412Z,8.85
2023-02-19T05:02:01.875Z,8.87
2023-02-19T05:03:02.997Z,8.87
2023-02-19T05:04:01.973Z,8.89
2023-02-19T05:05:03.016Z,8.94
2023-02-19T05:06:01.808Z,8.94
2023-02-19T05:07:02.270Z,8.94
2023-02-19T05:08:01.804Z,8.94
2023-02-19T05:09:02.250Z,8.94
2023-02-19T05:10:01.714Z,8.94
2023-02-19T05:11:02.280Z,8.94
2023-02-19T05:12:01.722Z,8.94
2023-02-19T05:13:02.195Z,8.94
2023-02-19T05:14:01.716Z,8.94
2023-02-19T05:15:03.219Z,8.95
2023-02-19T05:16:03.819Z,8.95
2023-02-19T05:17:03.070Z,8.95
2023-02-19T05:18:01.875Z,8.97
2023-02-19T05:19:01.401Z,9.03
2023-02-19T05:20:01.875Z,9.07
2023-02-19T05:21:01.311Z,9.06
2023-02-19T05:22:01.798Z,9.04
2023-02-19T05:23:02.290Z,9.05
2023-02-19T05:24:01.802Z,9.04
2023-02-19T05:25:03.942Z,9.07
2023-02-19T05:26:01.709Z,9.08
2023-02-19T05:27:02.226Z,9.1
2023-02-19T05:28:01.628Z,9.1
2023-02-19T05:29:02.112Z,9.1
2023-02-19T05:30:03.297Z,9.15
2023-02-19T05:31:02.084Z,9.18
2023-02-19T05:32:01.592Z,9.18
2023-02-19T05:33:02.034Z,9.21
2023-02-19T05:34:01.474Z,9.23
2023-02-19T05:35:01.980Z,9.21
2023-02-19T05:36:03.159Z,9.17
2023-02-19T05:37:01.949Z,9.12
2023-02-19T05:38:01.382Z,9.1
2023-02-19T05:39:01.882Z,9.09
2023-02-19T05:40:01.319Z,9.06
2023-02-19T05:41:01.820Z,9.05
2023-02-19T05:43:01.793Z,9.03
2023-02-19T05:44:02.276Z,9.03
2023-02-19T05:45:03.396Z,9.05
2023-02-19T05:46:02.284Z,9.07
2023-02-19T05:47:01.715Z,9.07
2023-02-19T05:48:02.193Z,9.07
2023-02-19T05:49:01.642Z,9.09
2023-02-19T05:50:02.126Z,9.1
2023-02-19T05:51:03.255Z,9.12
2023-02-19T05:52:03.800Z,9.12
2023-02-19T05:53:01.561Z,9.12
2023-02-19T05:54:02.052Z,9.09
2023-02-19T05:55:01.563Z,9.07
2023-02-19T05:56:02.040Z,9.06
2023-02-19T05:57:03.184Z,9.02
2023-02-19T05:58:03.640Z,8.95
2023-02-19T05:59:01.405Z,8.95
2023-02-19T06:00:01.877Z,8.94
2023-02-19T06:01:03.084Z,8.94
2023-02-19T06:02:01.808Z,8.94
2023-02-19T06:03:03.049Z,8.93
2023-02-19T06:04:03.584Z,8.88
2023-02-19T06:05:02.303Z,8.83
2023-02-19T06:06:01.725Z,8.79
2023-02-19T06:07:02.206Z,8.75
2023-02-19T06:08:01.712Z,8.68
2023-02-19T06:09:02.220Z,8.62
2023-02-19T06:10:01.659Z,8.57
2023-02-19T06:11:02.116Z,8.51
2023-02-19T06:12:01.763Z,8.48
2023-02-19T06:13:02.082Z,8.45
2023-02-19T06:14:01.611Z,8.42
2023-02-19T06:15:03.722Z,8.39
2023-02-19T06:16:01.578Z,8.36
2023-02-19T06:17:02.051Z,8.33
2023-02-19T06:18:03.251Z,8.3
2023-02-19T06:19:02.047Z,8.3
2023-02-19T06:20:01.506Z,8.28
2023-02-19T06:21:01.967Z,8.26
2023-02-19T06:22:01.385Z,8.23
2023-02-19T06:23:03.568Z,8.21
2023-02-19T06:24:03.077Z,8.18
2023-02-19T06:25:01.878Z,8.16
2023-02-19T06:26:01.315Z,8.13
2023-02-19T06:27:01.790Z,8.11
2023-02-19T06:29:01.817Z,8.05
2023-02-19T06:30:04.009Z,8.02
2023-02-19T06:31:01.835Z,8
2023-02-19T06:32:02.448Z,7.98
2023-02-19T06:33:03.394Z,7.93
2023-02-19T06:34:03.884Z,7.89
2023-02-19T06:35:03.406Z,7.85
2023-02-19T06:36:02.204Z,7.82
2023-02-19T06:37:01.680Z,7.81
2023-02-19T06:38:02.121Z,7.79
2023-02-19T06:39:03.318Z,7.76
2023-02-19T06:40:02.124Z,7.73
2023-02-19T06:41:01.565Z,7.71
2023-02-19T06:42:03.730Z,7.69
2023-02-19T06:43:01.577Z,7.68
2023-02-19T06:44:02.045Z,7.67
2023-02-19T06:45:01.489Z,7.65
2023-02-19T06:46:01.955Z,7.64
2023-02-19T06:47:01.489Z,7.63
2023-02-19T06:48:02.004Z,7.62
2023-02-19T06:49:03.079Z,7.62
2023-02-19T06:50:01.893Z,7.64
2023-02-19T06:51:01.422Z,7.64
2023-02-19T06:52:01.878Z,7.64
2023-02-19T06:53:01.338Z,7.64
2023-02-19T06:54:01.803Z,7.64
2023-02-19T06:55:02.283Z,7.64
2023-02-19T06:56:01.819Z,7.64
2023-02-19T06:57:02.320Z,7.64
2023-02-19T06:58:01.771Z,7.65
2023-02-19T06:59:02.232Z,7.68
2023-02-19T07:00:01.726Z,7.68
2023-02-19T07:01:02.253Z,7.67
2023-02-19T07:02:03.321Z,7.65
2023-02-19T07:03:03.868Z,7.64
2023-02-19T07:04:01.727Z,7.64
2023-02-19T07:05:02.117Z,7.65
2023-02-19T07:06:01.585Z,7.65
2023-02-19T07:07:03.794Z,7.67
2023-02-19T07:08:01.554Z,7.65
2023-02-19T07:09:02.037Z,7.64
2023-02-19T07:10:01.547Z,7.63
2023-02-19T07:11:02.055Z,7.64
2023-02-19T07:12:01.492Z,7.65
2023-02-19T07:13:01.965Z,7.63
2023-02-19T07:14:01.470Z,7.63
2023-02-19T07:15:02.986Z,7.64
2023-02-19T07:16:01.755Z,7.63
2023-02-19T07:17:02.205Z,7.64
2023-02-19T07:18:01.710Z,7.64
2023-02-19T07:19:02.202Z,7.64
2023-02-19T07:20:01.621Z,7.64
2023-02-19T07:21:02.120Z,7.65
2023-02-19T07:22:01.652Z,7.64
2023-02-19T07:23:02.119Z,7.64
2023-02-19T07:24:01.555Z,7.64
2023-02-19T07:25:02.029Z,7.63
2023-02-19T07:26:01.560Z,7.63
2023-02-19T07:27:02.055Z,7.63
2023-02-19T07:28:01.468Z,7.63
2023-02-19T07:29:01.953Z,7.63
2023-02-19T07:30:01.541Z,7.61
2023-02-19T07:31:02.014Z,7.61
2023-02-19T07:32:01.454Z,7.63
2023-02-19T07:33:01.884Z,7.63
2023-02-19T07:34:01.313Z,7.62
2023-02-19T07:35:01.872Z,7.61
2023-02-19T07:36:02.274Z,7.61
2023-02-19T07:37:01.795Z,7.61
2023-02-19T07:38:02.303Z,7.61
2023-02-19T07:39:03.393Z,7.6
2023-02-19T07:40:03.919Z,7.59
2023-02-19T07:41:01.636Z,7.59
2023-02-19T07:42:02.213Z,7.59
2023-02-19T07:43:01.656Z,7.6
2023-02-19T07:44:02.132Z,7.6
2023-02-19T07:45:01.648Z,7.59
2023-02-19T07:46:02.195Z,7.59
2023-02-19T07:47:01.565Z,7.59
2023-02-19T07:48:02.035Z,7.59
2023-02-19T07:49:01.585Z,7.59
2023-02-19T07:50:02.124Z,7.59
2023-02-19T07:51:03.163Z,7.61
2023-02-19T07:52:01.962Z,7.62
2023-02-19T07:53:01.483Z,7.63
2023-02-19T07:54:01.879Z,7.63
2023-02-19T07:55:01.474Z,7.63
2023-02-19T07:56:03.647Z,7.62
2023-02-19T07:57:01.315Z,7.6
2023-02-19T07:58:01.795Z,7.61
2023-02-19T07:59:03.958Z,7.61
2023-02-19T08:00:01.817Z,7.6
2023-02-19T08:01:02.354Z,7.61
2023-02-19T08:02:01.737Z,7.62
2023-02-19T08:03:02.285Z,7.62
2023-02-19T08:04:01.634Z,7.61
2023-02-19T08:05:03.960Z,7.61
2023-02-19T08:06:01.625Z,7.6
2023-02-19T08:07:02.111Z,7.61
2023-02-19T08:08:01.627Z,7.62
2023-02-19T08:09:02.125Z,7.63
2023-02-19T08:10:01.569Z,7.64
2023-02-19T08:11:02.055Z,7.65
2023-02-19T08:12:01.553Z,7.67
2023-02-19T08:13:02.046Z,7.67
2023-02-19T08:14:01.888Z,7.67
2023-02-19T08:15:01.327Z,7.68
2023-02-19T08:16:15.979Z,7.69
2023-02-19T08:17:02.301Z,7.7
2023-02-19T08:18:01.799Z,7.72
2023-02-19T08:19:03.964Z,7.73
2023-02-19T08:20:01.715Z,7.73
2023-02-19T08:21:02.201Z,7.74
2023-02-19T08:22:01.666Z,7.74
2023-02-19T08:23:02.125Z,7.75
2023-02-19T08:24:01.650Z,7.77
2023-02-19T08:25:02.123Z,7.78
2023-02-19T08:26:01.552Z,7.78
2023-02-19T08:27:02.072Z,7.78
2023-02-19T08:28:01.557Z,7.79
2023-02-19T08:29:02.043Z,7.81
2023-02-19T08:30:01.563Z,7.81
2023-02-19T08:31:03.735Z,7.83
2023-02-19T08:32:01.528Z,7.83
2023-02-19T08:33:02.340Z,7.83
2023-02-19T08:34:01.399Z,7.83
2023-02-19T08:35:03.550Z,7.83
2023-02-19T08:36:03.095Z,7.82
2023-02-19T08:37:01.880Z,7.81
2023-02-19T08:38:01.344Z,7.81
2023-02-19T08:39:01.811Z,7.81
2023-02-19T08:40:02.286Z,7.79
2023-02-19T08:41:01.788Z,7.79
2023-02-19T08:42:02.278Z,7.81
2023-02-19T08:43:01.767Z,7.82
2023-02-19T08:44:02.204Z,7.82
2023-02-19T08:45:03.412Z,7.81
2023-02-19T08:46:02.254Z,7.79
2023-02-19T08:47:01.649Z,7.77
2023-02-19T08:48:02.142Z,7.73
2023-02-19T08:49:01.576Z,7.65
2023-02-19T08:50:02.038Z,7.59
2023-02-19T08:51:03.160Z,7.49
2023-02-19T08:52:02.043Z,7.42
2023-02-19T08:53:01.491Z,7.39
2023-02-19T08:54:01.987Z,7.3
2023-02-19T08:55:01.395Z,7.26
2023-02-19T08:56:01.889Z,7.19
2023-02-19T08:57:01.406Z,7.17
2023-02-19T08:58:01.897Z,7.13
2023-02-19T08:59:01.342Z,7.13
2023-02-19T09:00:01.800Z,7.08
2023-02-19T09:01:02.322Z,7.02
2023-02-19T09:02:03.481Z,7
2023-02-19T09:03:02.282Z,6.94
2023-02-19T09:04:01.791Z,6.9
2023-02-19T09:05:02.198Z,6.81
2023-02-19T09:06:01.720Z,6.75
2023-02-19T09:07:02.200Z,6.71
2023-02-19T09:08:03.316Z,6.66
2023-02-19T09:09:02.230Z,6.66
2023-02-19T09:10:01.654Z,6.65
2023-02-19T09:11:02.108Z,6.63
2023-02-19T09:12:01.635Z,6.59
2023-02-19T09:13:02.117Z,6.55
2023-02-19T09:14:01.652Z,6.52
2023-02-19T09:15:02.119Z,6.46
2023-02-19T09:16:01.610Z,6.46
2023-02-19T09:17:02.038Z,6.42
2023-02-19T09:18:01.561Z,6.34
2023-02-19T09:19:02.063Z,6.3
2023-02-19T09:20:01.483Z,6.25
2023-02-19T09:21:01.955Z,6.21
2023-02-19T09:22:01.391Z,6.19
2023-02-19T09:23:01.900Z,6.19
2023-02-19T09:24:03.090Z,6.15
2023-02-19T09:25:01.872Z,6.14
2023-02-19T09:26:02.990Z,6.12
2023-02-19T09:27:01.814Z,6.11
2023-02-19T09:28:02.272Z,6.11
2023-02-19T09:29:03.474Z,6.11
2023-02-19T09:30:02.281Z,6.11
2023-02-19T09:31:03.462Z,6.08
2023-02-19T09:32:02.250Z,6.01
2023-02-19T09:33:01.735Z,6
2023-02-19T09:34:02.224Z,5.99
2023-02-19T09:35:01.633Z,5.99
2023-02-19T09:36:03.786Z,5.94
2023-02-19T09:37:03.322Z,5.91
2023-02-19T09:38:02.139Z,5.92
2023-02-19T09:39:01.573Z,5.9
2023-02-19T09:40:02.041Z,5.85
2023-02-19T09:41:01.555Z,5.84
2023-02-19T09:42:02.042Z,5.8
2023-02-19T09:43:01.972Z,5.77
2023-02-19T09:44:03.633Z,5.78
2023-02-19T09:45:01.507Z,5.79
2023-02-19T09:46:02.001Z,5.82
2023-02-19T09:47:01.408Z,5.82
2023-02-19T09:48:01.910Z,5.83
2023-02-19T09:49:01.398Z,5.83
2023-02-19T09:50:01.892Z,5.83
2023-02-19T09:51:03.012Z,5.8
2023-02-19T09:52:03.482Z,5.75
2023-02-19T09:53:02.289Z,5.69
2023-02-19T09:54:01.718Z,5.57
2023-02-19T09:55:02.295Z,5.52
2023-02-19T09:56:01.771Z,5.43
2023-02-19T09:57:02.216Z,5.39
2023-02-19T09:58:01.722Z,5.36
2023-02-19T09:59:02.209Z,5.33
2023-02-19T10:00:01.650Z,5.28
2023-02-19T10:01:03.807Z,5.3
2023-02-19T10:02:01.572Z,5.26
2023-02-19T10:03:02.029Z,5.18
2023-02-19T10:04:01.581Z,5.16
2023-02-19T10:05:02.096Z,5.11
2023-02-19T10:06:03.151Z,5.08
2023-02-19T10:07:01.973Z,5.03
2023-02-19T10:08:01.465Z,5.01
2023-02-19T10:09:01.881Z,5.01
2023-02-19T10:10:01.443Z,5.02
2023-02-19T10:11:01.887Z,5.05
2023-02-19T10:12:01.339Z,5.07
2023-02-19T10:13:03.117Z,5.11
2023-02-19T10:14:01.879Z,5.16
2023-02-19T10:15:01.341Z,5.13
2023-02-19T10:16:01.877Z,5.06
2023-02-19T10:17:02.288Z,5.02
2023-02-19T10:18:01.793Z,5.02
2023-02-19T10:19:02.278Z,4.97
2023-02-19T10:20:01.719Z,4.93
2023-02-19T10:21:02.208Z,4.91
2023-02-19T10:22:01.742Z,4.87
2023-02-19T10:23:02.195Z,4.84
2023-02-19T10:24:01.637Z,4.86
2023-02-19T10:25:02.130Z,4.84
2023-02-19T10:26:01.677Z,4.83
2023-02-19T10:27:02.105Z,4.88
2023-02-19T10:28:01.575Z,4.91
2023-02-19T10:29:02.036Z,4.89
2023-02-19T10:30:01.651Z,4.87
2023-02-19T10:31:02.058Z,4.92
2023-02-19T10:32:01.511Z,5.02
2023-02-19T10:33:01.953Z,5.01
2023-02-19T10:34:01.397Z,4.96
2023-02-19T10:35:01.886Z,4.93
2023-02-19T10:36:01.415Z,4.94
2023-02-19T10:37:01.867Z,4.89
2023-02-19T10:38:02.993Z,4.84
2023-02-19T10:39:01.937Z,4.8
2023-02-19T10:40:01.317Z,4.78
2023-02-19T10:41:01.792Z,4.77
2023-02-19T10:42:02.274Z,4.76
2023-02-19T10:43:01.810Z,4.76
2023-02-19T10:44:02.300Z,4.73
2023-02-19T10:45:01.712Z,4.76
2023-02-19T10:46:03.898Z,4.81
2023-02-19T10:47:01.630Z,4.79
2023-02-19T10:48:02.197Z,4.76
2023-02-19T10:49:01.633Z,4.67
2023-02-19T10:50:04.788Z,4.64
2023-02-19T10:51:01.640Z,4.65
2023-02-19T10:52:03.791Z,4.64
2023-02-19T10:53:01.577Z,4.62
2023-02-19T10:54:02.045Z,4.57
2023-02-19T10:55:01.570Z,4.53
2023-02-19T10:56:02.063Z,4.51
2023-02-19T10:57:01.513Z,4.54
2023-02-19T10:58:01.963Z,4.56
2023-02-19T10:59:01.407Z,4.58
2023-02-19T11:00:01.896Z,4.6
2023-02-19T11:01:05.347Z,4.59
2023-02-19T11:02:01.978Z,4.56
2023-02-19T11:03:01.408Z,4.54
2023-02-19T11:04:01.943Z,4.59
2023-02-19T11:05:01.331Z,4.58
2023-02-19T11:06:01.830Z,4.59
2023-02-19T11:07:02.292Z,4.62
2023-02-19T11:08:01.818Z,4.66
2023-02-19T11:09:02.291Z,4.71
2023-02-19T11:10:01.738Z,4.75
2023-02-19T11:11:02.198Z,4.76
2023-02-19T11:12:01.722Z,4.68
2023-02-19T11:13:03.218Z,4.67
2023-02-19T11:14:01.957Z,4.73
2023-02-19T11:15:03.077Z,4.82
2023-02-19T11:16:01.963Z,4.89
2023-02-19T11:17:03.007Z,4.97
2023-02-19T11:18:01.817Z,5.06
2023-02-19T11:19:02.287Z,5.17
2023-02-19T11:20:03.477Z,5.34
2023-02-19T11:21:02.304Z,5.42
2023-02-19T11:22:01.744Z,5.56
2023-02-19T11:23:02.224Z,5.69
2023-02-19T11:24:01.724Z,5.76
2023-02-19T11:25:02.201Z,5.66
2023-02-19T11:26:01.645Z,5.66
2023-02-19T11:27:02.144Z,5.76
2023-02-19T11:28:01.661Z,5.83
2023-02-19T11:29:02.128Z,5.83
2023-02-19T11:30:01.613Z,5.78
2023-02-19T11:31:02.083Z,5.82
2023-02-19T11:32:01.697Z,5.85
2023-02-19T11:33:02.052Z,5.83
2023-02-19T11:34:01.481Z,5.81
2023-02-19T11:35:01.954Z,5.76
2023-02-19T11:36:01.409Z,5.66
2023-02-19T11:37:01.883Z,5.62
2023-02-19T11:38:01.441Z,5.66
2023-02-19T11:39:01.891Z,5.69
2023-02-19T11:40:02.998Z,5.71
2023-02-19T11:41:01.813Z,5.76
2023-02-19T11:42:02.312Z,5.76
2023-02-19T11:43:01.825Z,5.8
2023-02-19T11:44:02.309Z,5.78
2023-02-19T11:45:01.726Z,5.69
2023-02-19T11:46:02.221Z,5.71
2023-02-19T11:47:01.743Z,5.74
2023-02-19T11:48:02.229Z,5.72
2023-02-19T11:49:01.742Z,5.74
2023-02-19T11:50:02.236Z,5.69
2023-02-19T11:51:01.657Z,5.7
2023-02-19T11:52:03.812Z,5.74
2023-02-19T11:53:01.672Z,5.72
2023-02-19T11:54:02.134Z,5.7
2023-02-19T11:55:01.568Z,5.65
2023-02-19T11:56:02.047Z,5.59
2023-02-19T11:57:01.495Z,5.51
2023-02-19T11:58:01.987Z,5.49
2023-02-19T11:59:01.514Z,5.49
2023-02-19T12:00:01.956Z,5.46
2023-02-19T12:01:01.481Z,5.41
2023-02-19T12:02:02.140Z,5.4
2023-02-19T12:03:01.402Z,5.41
2023-02-19T12:04:03.586Z,5.37
2023-02-19T12:05:03.034Z,5.31
2023-02-19T12:06:01.790Z,5.37
2023-02-19T12:07:02.295Z,5.43
2023-02-19T12:08:01.798Z,5.48
2023-02-19T12:09:02.304Z,5.52
2023-02-19T12:10:01.735Z,5.47
2023-02-19T12:11:02.235Z,5.42
2023-02-19T12:12:01.723Z,5.41
2023-02-19T12:13:02.208Z,5.41
2023-02-19T12:14:01.681Z,5.38
2023-02-19T12:15:02.112Z,5.41
2023-02-19T12:16:01.666Z,5.48
2023-02-19T12:17:03.797Z,5.45
2023-02-19T12:18:03.239Z,5.42
2023-02-19T12:19:02.324Z,5.45
2023-02-19T12:20:01.597Z,5.46
2023-02-19T12:21:02.201Z,5.46
2023-02-19T12:22:03.150Z,5.41
2023-02-19T12:23:02.113Z,5.43
2023-02-19T12:24:03.304Z,5.4
2023-02-19T12:25:02.104Z,5.41
2023-02-19T12:26:01.550Z,5.5
2023-02-19T12:27:03.715Z,5.56
2023-02-19T12:29:01.962Z,5.57
2023-02-19T12:30:02.567Z,5.6
2023-02-19T12:31:02.033Z,5.71
2023-02-19T12:32:04.110Z,5.77
2023-02-19T12:33:03.568Z,5.8
2023-02-19T12:34:02.370Z,5.8
2023-02-19T12:35:01.976Z,5.78
2023-02-19T12:36:04.009Z,5.78
2023-02-19T12:37:03.466Z,5.77
2023-02-19T12:38:02.301Z,5.8
2023-02-19T12:39:01.620Z,5.77
2023-02-19T12:40:02.253Z,5.69
2023-02-19T12:41:03.499Z,5.67
2023-02-19T12:42:02.185Z,5.67
2023-02-19T12:43:03.287Z,5.68
2023-02-19T12:44:03.794Z,5.68
2023-02-19T12:45:01.686Z,5.7
2023-02-19T12:46:02.166Z,5.78
2023-02-19T12:47:01.557Z,5.82
2023-02-19T12:48:03.720Z,5.84
2023-02-19T12:49:03.114Z,5.89
2023-02-19T12:50:02.058Z,5.97
2023-02-19T12:51:04.140Z,6.02
2023-02-19T12:52:01.967Z,6.02
2023-02-19T12:53:02.452Z,6.01
2023-02-19T12:54:03.561Z,6
2023-02-19T12:55:04.156Z,5.95
2023-02-19T12:56:01.867Z,5.96
2023-02-19T12:57:02.279Z,6.02
2023-02-19T12:58:01.800Z,6.05
2023-02-19T12:59:02.284Z,5.9
2023-02-19T13:00:01.826Z,5.91
2023-02-19T13:01:02.329Z,5.95
2023-02-19T13:02:01.756Z,5.94
2023-02-19T13:03:03.865Z,5.94
2023-02-19T13:04:01.643Z,5.99
2023-02-19T13:05:02.244Z,6.02
2023-02-19T13:06:01.765Z,6.02
2023-02-19T13:07:02.064Z,6.05
2023-02-19T13:08:03.327Z,6.06
2023-02-19T13:09:06.988Z,6.07
2023-02-19T13:10:01.559Z,6.09
2023-02-19T13:11:03.079Z,6.1
2023-02-19T13:12:01.723Z,6.11
2023-02-19T13:13:02.178Z,6.08
2023-02-19T13:14:01.619Z,6.12
2023-02-19T13:15:02.330Z,6.09
2023-02-19T13:16:01.659Z,6.08
2023-02-19T13:17:02.197Z,6.06
2023-02-19T13:18:01.696Z,6.06
2023-02-19T13:19:02.106Z,6.04
2023-02-19T13:20:03.344Z,6
2023-02-19T13:21:01.952Z,5.98
2023-02-19T13:22:02.416Z,5.93
2023-02-19T13:23:01.940Z,5.92
2023-02-19T13:24:02.411Z,5.95
2023-02-19T13:25:03.626Z,6
2023-02-19T13:26:02.333Z,6.05
2023-02-19T13:27:01.842Z,6.07